^^
Datos históricos de la estación: Murcia-Puente Tocinos
Diario Informe para Junio 26, 2019 Unidades:  Ingés    Métrico   Ambas
Diario Semanal Mensual Anual
  Máxima: Mínima: Promedio:
Temperatura: 83.7 °F 69.3 °F 75.6 °F
Punto de rocio: 69.1 °F 63.5 °F 66.6 °F
Humedad: 88% 51.1% 75%
Velocidad viento: 8.1mph 0mph 3.7mph
Racha viento: 17.3mph - -
Viento- - SE
Presión: 30.1 in 30 in -
Precipitación: 0 in    
 
 
Tabla de datos para Junio 26, 2019
Hora Temperatura Punto de rocio Presión Viento Velocidad viento Racha viento Humedad Intensidad lluvia(por hora) Nubes
00:04 73 °F 68.9 °F 30 in NNE 2.9 mph 5 mph 87% 0 in
00:09 72.9 °F 68.9 °F 30 in North 2.7 mph 5 mph 87% 0 in
00:14 72.9 °F 68.9 °F 30 in North 2 mph 3 mph 87% 0 in
00:19 72.9 °F 68.7 °F 30 in North 1.7 mph 2.4 mph 87% 0 in
00:24 72.9 °F 68.7 °F 30 in Calm   4.6 mph 87% 0 in
00:29 72.9 °F 69.1 °F 30 in NE 0.6 mph 5 mph 87.7% 0 in
00:34 72.9 °F 69.1 °F 30 in NE 2.4 mph 5 mph 87.6% 0 in
00:39 72.9 °F 68.9 °F 30 in NE 2.2 mph 4 mph 87% 0 in
00:44 72.9 °F 68.7 °F 30 in NE 1.8 mph 3.6 mph 87% 0 in
00:49 72.9 °F 68.9 °F 30 in NE 1.9 mph 4 mph 87.3% 0 in
00:54 72.9 °F 69.1 °F 30 in NE 2 mph 2.3 mph 88% 0 in
00:59 72.9 °F 69.1 °F 30 in NE 1.9 mph 3.6 mph 88% 0 in
01:04 72.9 °F 69.1 °F 30 in ENE 1.4 mph 4 mph 88% 0 in
01:09 72.9 °F 69.1 °F 30 in ENE 1.5 mph 4 mph 88% 0 in
01:14 72.9 °F 69.1 °F 30 in ESE 1.8 mph 5.2 mph 88% 0 in
01:19 72.7 °F 68.9 °F 30 in ESE 1.9 mph 5 mph 88% 0 in
01:24 72.7 °F 68.9 °F 30 in ESE 2.4 mph 5 mph 88% 0 in
01:29 72.5 °F 68.7 °F 30 in ESE 1.9 mph 4.6 mph 88% 0 in
01:34 72.5 °F 68.5 °F 30 in Calm   5 mph 87.1% 0 in
01:39 72.3 °F 67.8 °F 30 in SSE 0.7 mph 5 mph 85.7% 0 in
01:44 72.1 °F 66.9 °F 30 in SSE 3.1 mph 5.8 mph 83.8% 0 in
01:49 72.1 °F 66.6 °F 30 in SSE 3.2 mph 6 mph 82.6% 0 in
01:54 72.1 °F 66.2 °F 30 in SSE 3.6 mph 5.8 mph 81.8% 0 in
01:59 72.1 °F 66 °F 30 in SSE 3.6 mph 6 mph 81.2% 0 in
02:04 72.1 °F 66 °F 30 in Sur 3.6 mph 6 mph 81% 0 in
02:09 72.1 °F 66.2 °F 30 in Sur 3.7 mph 6.2 mph 81.9% 0 in
02:14 72.1 °F 66.4 °F 30 in SSO 4.3 mph 7.4 mph 82.1% 0 in
02:19 72.1 °F 66.7 °F 30 in SSO 4.3 mph 7 mph 83% 0 in
02:24 72 °F 66.6 °F 30 in SSO 4.3 mph 6.2 mph 83% 0 in
02:29 72.1 °F 66.7 °F 30 in SSO 4.3 mph 6.9 mph 83% 0 in
02:34 72 °F 66.6 °F 30 in SSO 4.3 mph 7 mph 83.2% 0 in
02:39 72 °F 66.7 °F 30 in SSO 4.2 mph 5.8 mph 83.8% 0 in
02:44 72 °F 66.9 °F 30 in SSO 3.6 mph 6 mph 84% 0 in
02:49 72 °F 66.9 °F 30 in SSO 3.5 mph 5.8 mph 84% 0 in
02:54 72 °F 66.9 °F 30 in SSO 3.1 mph 6 mph 84% 0 in
02:59 72 °F 66.9 °F 30 in SSO 3.1 mph 5.9 mph 84% 0 in
03:04 72 °F 66.9 °F 30 in SSO 3.1 mph 6 mph 84% 0 in
03:09 72 °F 67.1 °F 30 in SSO 3.1 mph 5.2 mph 84.9% 0 in
03:14 72 °F 67.3 °F 30 in SSO 3.1 mph 5 mph 85% 0 in
03:19 72 °F 67.3 °F 30 in Sur 2.9 mph 4.6 mph 85% 0 in
03:24 72 °F 67.3 °F 30 in Sur 2.4 mph 5 mph 85% 0 in
03:29 72 °F 67.1 °F 30 in Sur 2.4 mph 5 mph 85% 0 in
03:34 71.8 °F 66.9 °F 30 in Sur 2.4 mph 4.6 mph 85% 0 in
03:39 71.8 °F 66.9 °F 30 in Sur 2.4 mph 5 mph 85% 0 in
03:44 71.6 °F 66.7 °F 30 in Sur 2.4 mph 5 mph 85% 0 in
03:49 71.6 °F 66.7 °F 30 in Sur 2.4 mph 5 mph 85% 0 in
03:54 71.4 °F 66.7 °F 30 in SSE 2.4 mph 5 mph 85% 0 in
03:59 71.4 °F 66.7 °F 30 in SSE 2.3 mph 5 mph 85% 0 in
04:04 71.4 °F 66.7 °F 30 in SSE 2 mph 2.9 mph 85% 0 in
04:09 71.4 °F 66.7 °F 30 in SSE 1.9 mph 3 mph 85% 0 in
04:14 71.2 °F 66.6 °F 30 in SSE 1.4 mph 3.5 mph 85% 0 in
04:19 71.2 °F 66.6 °F 30 in SSE 1.4 mph 3 mph 85% 0 in
04:24 71.2 °F 66.6 °F 30 in SSE 1.4 mph 2 mph 85% 0 in
04:29 71.2 °F 66.6 °F 30 in SSE 1.1 mph 1.4 mph 85% 0 in
04:34 71.1 °F 66.4 °F 30 in Calm   1.2 mph 85% 0 in
04:39 71.1 °F 66.4 °F 30 in Calm   3.5 mph 85% 0 in
04:44 71.1 °F 66.4 °F 30 in Calm   3 mph 85% 0 in
04:49 71.1 °F 66.4 °F 30 in Calm   2.3 mph 85% 0 in
04:54 71.1 °F 66.4 °F 30 in Calm   2 mph 85.5% 0 in
04:59 70.9 °F 66.6 °F 30 in Calm     86% 0 in
05:04 70.9 °F 66.6 °F 30 in Calm     86% 0 in
05:09 70.9 °F 66.6 °F 30 in Calm     86% 0 in
05:14 70.9 °F 66.7 °F 30 in Calm     86.5% 0 in
05:19 71.1 °F 66.9 °F 30 in Calm     87% 0 in
05:24 71.1 °F 66.9 °F 30 in Calm     87% 0 in
05:29 71.1 °F 66.9 °F 30 in Calm     87% 0 in
05:34 71.1 °F 66.9 °F 30 in Calm   2.4 mph 87% 0 in
05:39 71.1 °F 67.1 °F 30 in Calm   2.3 mph 87% 0 in
05:44 71.2 °F 67.1 °F 30 in Calm   2.3 mph 87% 0 in
05:49 71.2 °F 67.3 °F 30 in Calm   2.3 mph 87% 0 in
05:54 71.2 °F 66.9 °F 30 in Calm   3.6 mph 86.2% 0 in
05:59 71.1 °F 66.7 °F 30 in SE 0.4 mph 4 mph 86.3% 0 in
06:04 71.1 °F 66.9 °F 30 in SE 1.8 mph 4.6 mph 86.6% 0 in
06:09 71.1 °F 66.9 °F 30 in SE 1.9 mph 5 mph 87% 0 in
06:14 71.1 °F 66.9 °F 30 in SE 2 mph 3 mph 87% 0 in
06:19 71.1 °F 66.9 °F 30 in SE 1.6 mph 2.4 mph 87% 0 in
06:24 71.1 °F 66.9 °F 30 in Calm   2 mph 87% 0 in
06:29 71.1 °F 67.1 °F 30 in Calm   4.7 mph 87% 0 in
06:34 71.1 °F 67.1 °F 30 in Calm   5 mph 87% 0 in
06:39 71.1 °F 67.1 °F 30 in Oeste 0.4 mph 5 mph 87% 0 in
06:44 71.1 °F 66.9 °F 30 in Oeste 2.4 mph 5.2 mph 86.5% 0 in
06:49 71.1 °F 66.7 °F 30 in OSO 2.5 mph 5.8 mph 86% 0 in
06:54 71.1 °F 66.7 °F 30 in SO 2.9 mph 6 mph 85.9% 0 in
06:59 71.1 °F 66.2 °F 30 in OSO 2.9 mph 6.2 mph 85% 0 in
07:04 71.1 °F 66 °F 30 in SO 3.1 mph 6 mph 84.4% 0 in
07:09 71.1 °F 66 °F 30 in OSO 3.1 mph 6 mph 84% 0 in
07:14 71.1 °F 66 °F 30 in OSO 3.1 mph 5.2 mph 84% 0 in
07:19 71.1 °F 66 °F 30 in OSO 3 mph 5 mph 84% 0 in
07:24 71.1 °F 65.8 °F 30 in SO 2.9 mph 5.4 mph 84% 0 in
07:29 70.9 °F 65.8 °F 30 in SO 3 mph 6.9 mph 83.9% 0 in
07:34 70.7 °F 65.7 °F 30 in OSO 3.6 mph 7 mph 83.9% 0 in
07:39 70.7 °F 65.3 °F 30 in OSO 3.6 mph 6.9 mph 83.5% 0 in
07:44 70.5 °F 65.1 °F 30 in OSO 3.6 mph 7 mph 83.3% 0 in
07:49 70.5 °F 65.1 °F 30 in OSO 3.5 mph 5.9 mph 83.2% 0 in
07:54 70.3 °F 65.3 °F 30 in Oeste 3.1 mph 6 mph 84% 0 in
07:59 70.3 °F 65.3 °F 30 in Oeste 3 mph 6 mph 84% 0 in
08:04 70.2 °F 65.1 °F 30 in Oeste 2.9 mph 5.2 mph 84% 0 in
08:09 70.2 °F 65.1 °F 30 in Oeste 2.9 mph 5 mph 84% 0 in
08:14 70.2 °F 65.1 °F 30 in ONO 2.9 mph 5.2 mph 84% 0 in
08:19 70 °F 64.8 °F 30 in ONO 2.9 mph 5.8 mph 84% 0 in
08:24 69.6 °F 64.6 °F 30 in ONO 3.1 mph 6 mph 84% 0 in
08:29 69.4 °F 64.4 °F 30 in Oeste 3.2 mph 6 mph 84% 0 in
08:34 69.3 °F 64.2 °F 30 in Oeste 3.6 mph 6 mph 84% 0 in
08:39 69.3 °F 64.2 °F 30 in Oeste 3.4 mph 6 mph 84% 0 in
08:44 69.4 °F 64.4 °F 30 in Oeste 2.4 mph 5.2 mph 84% 0 in
08:49 69.4 °F 64.4 °F 30 in Oeste 2.5 mph 5.8 mph 84% 0 in
08:54 69.6 °F 64.6 °F 30 in Oeste 3.1 mph 6 mph 84% 0 in
08:59 69.8 °F 64.8 °F 30 in ONO 3.1 mph 6.2 mph 84% 0 in
09:04 70 °F 64.9 °F 30.1 in ONO 3.1 mph 6 mph 84% 0 in
09:09 70.2 °F 64.9 °F 30.1 in ONO 3.1 mph 5.9 mph 83.4% 0 in
09:14 70.3 °F 64.9 °F 30.1 in ONO 3.1 mph 6 mph 83% 0 in
09:19 70.3 °F 64.9 °F 30.1 in ONO 3.1 mph 6.2 mph 83% 0 in
09:24 70.5 °F 65.1 °F 30.1 in Oeste 3.1 mph 6 mph 83% 0 in
09:29 70.7 °F 65.3 °F 30.1 in ONO 3 mph 6 mph 82.6% 0 in
09:34 70.9 °F 65.1 °F 30.1 in Oeste 2.9 mph 6 mph 82% 0 in
09:39 71.2 °F 65.3 °F 30.1 in OSO 2.9 mph 5 mph 81.9% 0 in
09:44 71.4 °F 65.3 °F 30.1 in OSO 2.9 mph 5 mph 81% 0 in
09:49 72 °F 65.7 °F 30.1 in Oeste 2.8 mph 5 mph 80.7% 0 in
09:54 72.1 °F 65.7 °F 30.1 in NO 2.4 mph 5.2 mph 79.6% 0 in
09:59 72.7 °F 65.8 °F 30.1 in ONO 2.4 mph 5 mph 79% 0 in
10:04 73 °F 66 °F 30.1 in Oeste 2.4 mph 3.5 mph 79% 0 in
10:09 73.4 °F 66.2 °F 30.1 in ONO 2.2 mph 4.6 mph 78.5% 0 in
10:14 73.9 °F 66.2 °F 30.1 in SO 1.4 mph 5 mph 76.8% 0 in
10:19 74.5 °F 66.2 °F 30.1 in ESE 1.6 mph 3.6 mph 75.4% 0 in
10:24 75 °F 66.6 °F 30.1 in NNE 2 mph 4 mph 74.6% 0 in
10:29 75.4 °F 66.4 °F 30.1 in ONO 2.2 mph 6.2 mph 73.7% 0 in
10:34 74.8 °F 66.2 °F 30.1 in Oeste 2.9 mph 6 mph 74.6% 0 in
10:39 74.7 °F 66.2 °F 30.1 in Oeste 2.9 mph 6 mph 75% 0 in
10:44 74.5 °F 66 °F 30.1 in Oeste 2.9 mph 6.2 mph 75% 0 in
10:49 74.5 °F 66 °F 30.1 in Oeste 3 mph 6.2 mph 75% 0 in
10:54 74.5 °F 66 °F 30.1 in ONO 3.6 mph 6 mph 75% 0 in
10:59 74.7 °F 66.2 °F 30.1 in ONO 3.3 mph 5 mph 75.1% 0 in
11:04 74.8 °F 66.4 °F 30.1 in NO 2.4 mph 5.2 mph 74.6% 0 in
11:09 75.2 °F 66.2 °F 30.1 in ONO 2.5 mph 5.9 mph 73.8% 0 in
11:14 75.4 °F 66.4 °F 30.1 in Oeste 2.9 mph 6 mph 73.9% 0 in
11:19 75.7 °F 66.4 °F 30.1 in SSE 2.7 mph 4.6 mph 72.8% 0 in
11:24 76.3 °F 66.2 °F 30.1 in Sur 1.8 mph 5 mph 70.9% 0 in
11:29 76.6 °F 66 °F 30.1 in ENE 1.9 mph 5 mph 70% 0 in
11:34 77 °F 66.2 °F 30.1 in NNE 2.4 mph 5 mph 69.3% 0 in
11:39 77.4 °F 66.4 °F 30.1 in NNO 2.4 mph 5.8 mph 68.6% 0 in
11:44 77.5 °F 65.8 °F 30.1 in NNE 2.4 mph 8.1 mph 67.3% 0 in
11:49 77.7 °F 65.7 °F 30.1 in NE 2.5 mph 8 mph 66.2% 0 in
11:54 77.5 °F 65.5 °F 30.1 in NNE 3.1 mph 6 mph 66.1% 0 in
11:59 77.5 °F 65.3 °F 30.1 in NO 3 mph 6 mph 66% 0 in
12:04 77.7 °F 65.7 °F 30.1 in North 2.9 mph 6.4 mph 66.3% 0 in
12:09 78.3 °F 65.7 °F 30.1 in NNE 2.9 mph 7 mph 65.6% 0 in
12:14 78.4 °F 65.5 °F 30.1 in NE 2.9 mph 5.9 mph 64.5% 0 in
12:19 78.6 °F 65.5 °F 30.1 in NNE 2.8 mph 6.2 mph 64% 0 in
12:24 79 °F 65.1 °F 30.1 in ENE 2.4 mph 7.4 mph 62.7% 0 in
12:29 79 °F 64.8 °F 30.1 in ESE 2.9 mph 8.5 mph 61.8% 0 in
12:34 79.2 °F 64.8 °F 30.1 in ENE 4.3 mph 9 mph 61.4% 0 in
12:39 79.3 °F 64.8 °F 30.1 in North 4 mph 6.2 mph 61% 0 in
12:44 79.5 °F 65.5 °F 30.1 in NE 3.1 mph 8.1 mph 62.2% 0 in
12:49 79.5 °F 65.3 °F 30.1 in NE 3.4 mph 9.2 mph 61.8% 0 in
12:54 79.3 °F 64.6 °F 30.1 in NE 4.3 mph 11.5 mph 60.7% 0 in
12:59 79.3 °F 64.6 °F 30.1 in NE 4.5 mph 12 mph 60.8% 0 in
13:04 79.3 °F 64.6 °F 30.1 in NE 5.2 mph 9.2 mph 60.7% 0 in
13:09 79.3 °F 64.9 °F 30.1 in North 5 mph 9 mph 61.5% 0 in
13:14 79.7 °F 65.1 °F 30.1 in North 4 mph 9.2 mph 61.2% 0 in
13:19 79.9 °F 65.3 °F 30.1 in North 4.1 mph 9 mph 61.2% 0 in
13:24 80.1 °F 65.1 °F 30.1 in ENE 4.3 mph 8.5 mph 60.4% 0 in
13:29 80.2 °F 65.3 °F 30.1 in NNE 4.5 mph 15 mph 60.3% 0 in
13:34 80.1 °F 65.5 °F 30.1 in NNE 5.2 mph 15 mph 61% 0 in
13:39 80.2 °F 65.8 °F 30.1 in NE 5.4 mph 12 mph 61.8% 0 in
13:44 80.4 °F 66.2 °F 30.1 in Este 6.2 mph 9 mph 62% 0 in
13:49 81 °F 66.4 °F 30.1 in NE 5.8 mph 10.4 mph 61.4% 0 in
13:54 81 °F 66 °F 30 in Este 4.3 mph 10.4 mph 60.8% 0 in
13:59 81 °F 65.8 °F 30 in NNE 4.7 mph 10.4 mph 60.2% 0 in
14:04 80.8 °F 65.7 °F 30 in North 5.9 mph 10 mph 60% 0 in
14:09 81.1 °F 65.8 °F 30 in NE 5.7 mph 10.7 mph 59.9% 0 in
14:14 81 °F 65.7 °F 30 in NE 5.2 mph 11 mph 59.9% 0 in
14:19 81 °F 65.8 °F 30 in NE 5.1 mph 10.4 mph 60% 0 in
14:24 81 °F 65.7 °F 30 in NNE 4.7 mph 10.4 mph 59.7% 0 in
14:29 81.1 °F 65.8 °F 30 in NE 5 mph 10.4 mph 59.7% 0 in
14:34 81.1 °F 65.8 °F 30 in NNE 5.9 mph 10.4 mph 59.6% 0 in
14:39 81.5 °F 65.8 °F 30 in NE 6 mph 10 mph 59.2% 0 in
14:44 81.5 °F 65.8 °F 30 in ENE 6.2 mph 10.4 mph 59% 0 in
14:49 81.7 °F 65.7 °F 30 in ENE 6.2 mph 11.5 mph 58.4% 0 in
14:54 81.7 °F 65.8 °F 30 in NE 5.9 mph 13 mph 58.5% 0 in
14:59 81.9 °F 65.7 °F 30 in NNE 5.6 mph 13 mph 58% 0 in
15:04 81.9 °F 65.7 °F 30 in NE 4.7 mph 13 mph 58% 0 in
15:09 82 °F 65.7 °F 30 in NE 4.8 mph 13 mph 57.8% 0 in
15:14 82.4 °F 65.7 °F 30 in NE 5.2 mph 10 mph 57% 0 in
15:19 82.6 °F 65.7 °F 30 in NE 5.5 mph 14.5 mph 56.8% 0 in
15:24 82.4 °F 65.7 °F 30 in ENE 6.4 mph 15 mph 56.9% 0 in
15:29 82.4 °F 65.5 °F 30 in NE 6.3 mph 15 mph 56.5% 0 in
15:34 82.8 °F 65.8 °F 30 in NE 6.2 mph 11.5 mph 57.1% 0 in
15:39 82.8 °F 66 °F 30 in ENE 6.2 mph 15.2 mph 57.4% 0 in
15:44 82.4 °F 66.2 °F 30 in NE 6.4 mph 15 mph 58% 0 in
15:49 82.8 °F 66.6 °F 30 in ENE 6.4 mph 11.8 mph 58.3% 0 in
15:54 82.9 °F 66.6 °F 30 in NE 6.4 mph 13.8 mph 57.8% 0 in
15:59 82.4 °F 66.6 °F 30 in NE 6.7 mph 14 mph 58.8% 0 in
16:04 82.2 °F 66.9 °F 30 in ENE 7.6 mph 17.3 mph 59.7% 0 in
16:09 82.4 °F 66.9 °F 30 in NE 7.7 mph 17 mph 59.8% 0 in
16:14 82.4 °F 66.9 °F 30 in NE 8.1 mph 14 mph 59.9% 0 in
16:19 82.6 °F 67.1 °F 30 in NE 7.8 mph 13 mph 59.6% 0 in
16:24 82.8 °F 66.7 °F 30 in NE 6.9 mph 13.7 mph 58.6% 0 in
16:29 82.8 °F 66.6 °F 30 in NE 7 mph 14 mph 58% 0 in
16:34 82.9 °F 66.2 °F 30 in ENE 7.6 mph 12 mph 57.2% 0 in
16:39 83.3 °F 66.7 °F 30 in ENE 7.3 mph 11.5 mph 57.4% 0 in
16:44 83.3 °F 66.9 °F 30 in NE 6.2 mph 12 mph 57.8% 0 in
16:49 83.1 °F 66.6 °F 30 in NE 6.2 mph 13 mph 57.6% 0 in
16:54 82.9 °F 66.4 °F 30 in ENE 6.2 mph 13 mph 57.5% 0 in
16:59 82.8 °F 66.6 °F 30 in NE 6.4 mph 12 mph 57.9% 0 in
17:04 82.9 °F 66.6 °F 30 in NE 6.9 mph 12.5 mph 57.8% 0 in
17:09 82.8 °F 66.4 °F 30 in NE 7 mph 13 mph 57.8% 0 in
17:14 82.8 °F 66.6 °F 30 in NE 7.4 mph 13 mph 57.9% 0 in
17:19 82.9 °F 66.6 °F 30 in ENE 7.3 mph 13 mph 58% 0 in
17:24 82.9 °F 66.4 °F 30 in ENE 6.9 mph 13 mph 57.4% 0 in
17:29 83.3 °F 64.8 °F 30 in Este 6.6 mph 12 mph 53.7% 0 in
17:34 83.7 °F 65.8 °F 30 in Este 5.9 mph 12 mph 55.3% 0 in
17:39 83.7 °F 64.2 °F 30 in SE 5.8 mph 11.5 mph 52.2% 0 in
17:44 83.5 °F 63.7 °F 30 in ESE 5.4 mph 12.7 mph 51.3% 0 in
17:49 83.5 °F 63.5 °F 30 in SE 5.7 mph 13 mph 51.1% 0 in
17:54 83.5 °F 64 °F 30 in SE 6.4 mph 12 mph 51.9% 0 in
17:59 83.5 °F 64 °F 30 in SE 6.3 mph 13 mph 52.1% 0 in
18:04 83.1 °F 63.7 °F 30 in SE 6.2 mph 13 mph 52.2% 0 in
18:09 83.1 °F 64.4 °F 30 in ESE 6.5 mph 13 mph 53.4% 0 in
18:14 82.9 °F 64.8 °F 30 in SE 7.4 mph 12 mph 54% 0 in
18:19 82.9 °F 64.8 °F 30 in SE 7.1 mph 11.8 mph 54.4% 0 in
18:24 82.8 °F 64.9 °F 30 in ESE 6.4 mph 12 mph 55.2% 0 in
18:29 82.8 °F 65.5 °F 30 in SE 6.4 mph 12 mph 56.3% 0 in
18:34 82.6 °F 65.8 °F 30 in ESE 6.4 mph 10.4 mph 57.3% 0 in
18:39 82 °F 65.7 °F 30 in ESE 6.4 mph 11.8 mph 57.5% 0 in
18:44 81.9 °F 65.8 °F 30 in ESE 6.4 mph 12 mph 58.7% 0 in
18:49 81.7 °F 66.2 °F 30 in SE 6.6 mph 12 mph 59.7% 0 in
18:54 81.3 °F 66.4 °F 30 in SE 7.4 mph 12 mph 60.5% 0 in
18:59 81.3 °F 66.6 °F 30 in ESE 7.1 mph 12 mph 61.1% 0 in
19:04 81.1 °F 66.6 °F 30 in ESE 6.4 mph 10.7 mph 61.3% 0 in
19:09 81 °F 66.9 °F 30 in ESE 6.5 mph 11.8 mph 62.3% 0 in
19:14 80.4 °F 66.7 °F 30 in ESE 6.9 mph 12 mph 63% 0 in
19:19 80.2 °F 66.9 °F 30 in ESE 6.8 mph 13.8 mph 64% 0 in
19:24 80.1 °F 66.7 °F 30 in ESE 6.4 mph 14 mph 64% 0 in
19:29 79.7 °F 66.6 °F 30 in ESE 6.5 mph 10.4 mph 64.6% 0 in
19:34 79.3 °F 66.6 °F 30 in ESE 6.9 mph 10 mph 65.2% 0 in
19:39 79.3 °F 66.7 °F 30 in ESE 6.5 mph 10 mph 65.6% 0 in
19:44 79.2 °F 66.7 °F 30 in ESE 5.2 mph 8 mph 66% 0 in
19:49 79 °F 66.9 °F 30 in ESE 4.9 mph 7 mph 66.9% 0 in
19:54 78.6 °F 66.7 °F 30 in Este 4 mph 7 mph 67% 0 in
19:59 78.3 °F 66.7 °F 30 in ESE 4 mph 7 mph 67.5% 0 in
20:04 78.1 °F 67.1 °F 30 in ESE 4 mph 8.1 mph 68.9% 0 in
20:09 77.7 °F 66.9 °F 30 in ESE 4.2 mph 8 mph 69.2% 0 in
20:14 77.5 °F 67.1 °F 30 in Este 4.7 mph 7 mph 70% 0 in
20:19 77.4 °F 67.1 °F 30 in Este 4.5 mph 7 mph 70.5% 0 in
20:24 77.2 °F 66.7 °F 30 in NE 4 mph 6.2 mph 70.3% 0 in
20:29 77 °F 66.7 °F 30 in NE 3.8 mph 6 mph 71% 0 in
20:34 76.6 °F 67.1 °F 30 in NE 3.1 mph 6.9 mph 72.1% 0 in
20:39 76.5 °F 67.3 °F 30 in ENE 3.2 mph 7 mph 73% 0 in
20:44 76.3 °F 67.5 °F 30 in NE 3.6 mph 6 mph 73.9% 0 in
20:49 76.1 °F 67.3 °F 30 in NE 3.5 mph 6.9 mph 74.1% 0 in
20:54 75.9 °F 67.3 °F 30 in ENE 3.1 mph 7 mph 75% 0 in
20:59 75.7 °F 67.3 °F 30 in ENE 3.1 mph 6 mph 75% 0 in
21:04 75.7 °F 67.3 °F 30 in ENE 3.1 mph 6.2 mph 75.2% 0 in
21:09 75.6 °F 67.5 °F 30 in ENE 3.1 mph 6.2 mph 75.9% 0 in
21:14 75.6 °F 67.5 °F 30 in NE 3.1 mph 6 mph 76% 0 in
21:19 75.4 °F 67.6 °F 30 in NNE 3 mph 6 mph 76.8% 0 in
21:24 75 °F 67.6 °F 30 in NE 2.9 mph 6.4 mph 77.4% 0 in
21:29 74.7 °F 67.5 °F 30 in NNE 3.1 mph 7 mph 78.3% 0 in
21:34 74.5 °F 67.5 °F 30 in NE 4 mph 7 mph 79% 0 in
21:39 74.5 °F 67.5 °F 30 in NE 4.1 mph 6.9 mph 79.1% 0 in
21:44 74.3 °F 67.6 °F 30 in NNE 4.3 mph 7 mph 80% 0 in
21:49 74.1 °F 67.6 °F 30 in NNE 4.2 mph 6.2 mph 80.3% 0 in
21:54 73.9 °F 67.8 °F 30 in NE 4 mph 6 mph 81% 0 in
21:59 73.8 °F 68 °F 30 in NE 3.9 mph 6 mph 82% 0 in
22:04 73.8 °F 68 °F 30 in NE 3.6 mph 6.9 mph 82.4% 0 in
22:09 73.4 °F 68 °F 30 in NE 3.7 mph 8.1 mph 83.2% 0 in
22:14 73.2 °F 68.2 °F 30 in NE 4.3 mph 8.1 mph 84% 0 in
22:19 73 °F 68 °F 30 in NE 4.5 mph 8 mph 84.2% 0 in
22:24 73 °F 68.2 °F 30 in NE 5.2 mph 8.1 mph 85% 0 in
22:29 72.9 °F 68.2 °F 30 in NE 5.2 mph 9.2 mph 85% 0 in
22:34 72.9 °F 68.2 °F 30.1 in NE 5.4 mph 9 mph 85% 0 in
22:39 72.9 °F 68.2 °F 30.1 in NE 5.2 mph 9.2 mph 85.4% 0 in
22:44 72.9 °F 68.4 °F 30.1 in NE 4.7 mph 9.2 mph 86% 0 in
22:49 72.9 °F 68.4 °F 30.1 in NE 4.8 mph 9.2 mph 86% 0 in
22:54 72.7 °F 68.2 °F 30.1 in NE 5.2 mph 10.4 mph 86% 0 in
22:59 72.7 °F 68.4 °F 30.1 in NE 5.2 mph 10 mph 86.4% 0 in
23:04 72.7 °F 68.5 °F 30.1 in NE 5.2 mph 9 mph 87% 0 in
23:09 72.5 °F 68.4 °F 30.1 in NE 5 mph 8 mph 87% 0 in
23:14 72.3 °F 68.2 °F 30.1 in NE 4.3 mph 6.9 mph 87% 0 in
23:19 72.3 °F 68.2 °F 30.1 in NE 4.4 mph 7 mph 87.3% 0 in
23:24 72.1 °F 68.4 °F 30.1 in NE 4.7 mph 7 mph 88% 0 in
23:29 72.1 °F 68.4 °F 30.1 in NE 4.3 mph 6 mph 88% 0 in
23:34 72.1 °F 68.4 °F 30.1 in NE 3.1 mph 4.7 mph 88% 0 in
23:39 72.1 °F 68.4 °F 30.1 in NE 3 mph 5 mph 88% 0 in
23:44 72.1 °F 68.4 °F 30.1 in NE 2.9 mph 5 mph 88% 0 in
23:49 72.1 °F 68.4 °F 30.1 in ENE 2.8 mph 4.6 mph 88% 0 in
23:54 72 °F 68.2 °F 30.1 in Este 2.4 mph 5 mph 88% 0 in
23:59 72 °F 68.2 °F 30.1 in ENE 2.4 mph 5.8 mph 88% 0 in
Murcia-Puente Tocinos, España
Compliments of Weather Underground - 3 mb

La estación de MeteoMurcia.com, publica sus datos en los siguientes proyectos:

Weather Underground PWS IMURCIAP2 Meteoclimatic www.awekas.at

W3Counter
Web Analytics